sensor_id;sensor_type;location;lat;lon;timestamp;pressure;altitude;pressure_sealevel;temperature;humidity
21574;BME280;10948;48.706;9.258;2023-02-20T00:00:23;98907.97;;;9.09;100.00
21574;BME280;10948;48.706;9.258;2023-02-20T00:02:49;98916.50;;;9.13;100.00
21574;BME280;10948;48.706;9.258;2023-02-20T00:05:15;98911.03;;;8.97;100.00
21574;BME280;10948;48.706;9.258;2023-02-20T00:07:40;98915.75;;;9.09;100.00
21574;BME280;10948;48.706;9.258;2023-02-20T00:10:06;98921.06;;;9.06;100.00
21574;BME280;10948;48.706;9.258;2023-02-20T00:12:31;98910.91;;;9.00;100.00
21574;BME280;10948;48.706;9.258;2023-02-20T00:14:57;98913.13;;;8.86;100.00
21574;BME280;10948;48.706;9.258;2023-02-20T00:17:22;98915.97;;;8.79;100.00
21574;BME280;10948;48.706;9.258;2023-02-20T00:19:47;98917.16;;;8.95;100.00
21574;BME280;10948;48.706;9.258;2023-02-20T00:22:12;98914.56;;;8.95;100.00
21574;BME280;10948;48.706;9.258;2023-02-20T00:24:38;98908.50;;;8.94;100.00
21574;BME280;10948;48.706;9.258;2023-02-20T00:27:03;98898.28;;;8.90;100.00
21574;BME280;10948;48.706;9.258;2023-02-20T00:29:28;98895.16;;;8.80;100.00
21574;BME280;10948;48.706;9.258;2023-02-20T00:31:54;98898.28;;;8.90;100.00
21574;BME280;10948;48.706;9.258;2023-02-20T00:34:20;98895.56;;;8.93;100.00
21574;BME280;10948;48.706;9.258;2023-02-20T00:36:46;98900.25;;;8.83;100.00
21574;BME280;10948;48.706;9.258;2023-02-20T00:39:11;98899.13;;;8.90;100.00
21574;BME280;10948;48.706;9.258;2023-02-20T00:41:36;98908.13;;;9.05;100.00
21574;BME280;10948;48.706;9.258;2023-02-20T00:44:01;98904.72;;;9.04;100.00
21574;BME280;10948;48.706;9.258;2023-02-20T00:46:27;98907.38;;;9.01;100.00
21574;BME280;10948;48.706;9.258;2023-02-20T00:48:52;98912.59;;;9.01;100.00
21574;BME280;10948;48.706;9.258;2023-02-20T00:51:17;98917.94;;;8.97;100.00
21574;BME280;10948;48.706;9.258;2023-02-20T00:53:42;98926.34;;;9.03;100.00
21574;BME280;10948;48.706;9.258;2023-02-20T00:56:08;98929.97;;;8.99;100.00
21574;BME280;10948;48.706;9.258;2023-02-20T00:58:33;98933.56;;;8.95;100.00
21574;BME280;10948;48.706;9.258;2023-02-20T01:00:58;98935.25;;;8.96;100.00
21574;BME280;10948;48.706;9.258;2023-02-20T01:03:23;98922.97;;;9.01;100.00
21574;BME280;10948;48.706;9.258;2023-02-20T01:05:49;98924.50;;;9.07;100.00
21574;BME280;10948;48.706;9.258;2023-02-20T01:08:14;98928.50;;;8.92;100.00
21574;BME280;10948;48.706;9.258;2023-02-20T01:10:39;98922.41;;;8.93;100.00
21574;BME280;10948;48.706;9.258;2023-02-20T01:13:05;98924.66;;;9.02;100.00
21574;BME280;10948;48.706;9.258;2023-02-20T01:15:30;98931.13;;;8.91;100.00
21574;BME280;10948;48.706;9.258;2023-02-20T01:17:55;98930.19;;;8.93;100.00
21574;BME280;10948;48.706;9.258;2023-02-20T01:20:20;98937.28;;;8.88;100.00
21574;BME280;10948;48.706;9.258;2023-02-20T01:22:46;98931.88;;;8.94;100.00
21574;BME280;10948;48.706;9.258;2023-02-20T01:25:11;98925.31;;;8.84;100.00
21574;BME280;10948;48.706;9.258;2023-02-20T01:27:36;98921.97;;;9.05;100.00
21574;BME280;10948;48.706;9.258;2023-02-20T01:30:01;98914.81;;;8.87;100.00
21574;BME280;10948;48.706;9.258;2023-02-20T01:32:27;98906.28;;;8.84;100.00
21574;BME280;10948;48.706;9.258;2023-02-20T01:34:52;98903.09;;;8.77;100.00
21574;BME280;10948;48.706;9.258;2023-02-20T01:37:18;98911.84;;;8.73;100.00
21574;BME280;10948;48.706;9.258;2023-02-20T01:39:45;98906.69;;;8.96;100.00
21574;BME280;10948;48.706;9.258;2023-02-20T01:42:13;98900.09;;;8.88;100.00
21574;BME280;10948;48.706;9.258;2023-02-20T01:44:41;98898.47;;;8.85;100.00
21574;BME280;10948;48.706;9.258;2023-02-20T01:47:08;98890.88;;;8.79;100.00
21574;BME280;10948;48.706;9.258;2023-02-20T01:52:00;98893.44;;;8.81;100.00
21574;BME280;10948;48.706;9.258;2023-02-20T01:54:27;98896.88;;;8.81;100.00
21574;BME280;10948;48.706;9.258;2023-02-20T01:56:53;98890.69;;;8.85;100.00
21574;BME280;10948;48.706;9.258;2023-02-20T01:59:21;98888.69;;;8.92;100.00
21574;BME280;10948;48.706;9.258;2023-02-20T02:01:47;98893.19;;;8.87;100.00
21574;BME280;10948;48.706;9.258;2023-02-20T02:04:12;98890.56;;;8.88;100.00
21574;BME280;10948;48.706;9.258;2023-02-20T02:06:39;98896.06;;;8.79;100.00
21574;BME280;10948;48.706;9.258;2023-02-20T02:09:07;98885.53;;;8.84;100.00
21574;BME280;10948;48.706;9.258;2023-02-20T02:11:34;98899.88;;;8.69;100.00
21574;BME280;10948;48.706;9.258;2023-02-20T02:14:01;98889.28;;;8.75;100.00
21574;BME280;10948;48.706;9.258;2023-02-20T02:27:29;98876.66;;;8.66;100.00
21574;BME280;10948;48.706;9.258;2023-02-20T02:38:31;98868.00;;;8.66;100.00
21574;BME280;10948;48.706;9.258;2023-02-20T02:41:07;98868.34;;;8.80;100.00
21574;BME280;10948;48.706;9.258;2023-02-20T02:43:44;98867.78;;;8.72;100.00
21574;BME280;10948;48.706;9.258;2023-02-20T02:46:13;98871.59;;;8.86;100.00
21574;BME280;10948;48.706;9.258;2023-02-20T02:48:44;98866.97;;;8.71;100.00
21574;BME280;10948;48.706;9.258;2023-02-20T02:51:15;98867.16;;;8.65;100.00
21574;BME280;10948;48.706;9.258;2023-02-20T02:54:03;98867.16;;;8.65;100.00
21574;BME280;10948;48.706;9.258;2023-02-20T02:57:15;98861.50;;;8.54;100.00
21574;BME280;10948;48.706;9.258;2023-02-20T02:59:27;98861.69;;;8.48;100.00
21574;BME280;10948;48.706;9.258;2023-02-20T03:01:58;98867.06;;;8.44;100.00
21574;BME280;10948;48.706;9.258;2023-02-20T03:04:24;98870.53;;;8.43;100.00
21574;BME280;10948;48.706;9.258;2023-02-20T03:06:52;98873.09;;;8.44;100.00
21574;BME280;10948;48.706;9.258;2023-02-20T03:09:21;98862.72;;;8.44;100.00
21574;BME280;10948;48.706;9.258;2023-02-20T03:11:49;98862.41;;;8.53;100.00
21574;BME280;10948;48.706;9.258;2023-02-20T03:14:17;98867.38;;;8.35;100.00
21574;BME280;10948;48.706;9.258;2023-02-20T03:17:13;98861.63;;;8.51;100.00
21574;BME280;10948;48.706;9.258;2023-02-20T03:19:48;98862.09;;;8.36;100.00
21574;BME280;10948;48.706;9.258;2023-02-20T03:24:39;98860.72;;;8.52;100.00
21574;BME280;10948;48.706;9.258;2023-02-20T03:27:28;98863.00;;;8.35;100.00
21574;BME280;10948;48.706;9.258;2023-02-20T03:29:55;98864.81;;;8.33;100.00
21574;BME280;10948;48.706;9.258;2023-02-20T03:32:22;98870.59;;;8.41;100.00
21574;BME280;10948;48.706;9.258;2023-02-20T03:35:07;98863.88;;;8.36;100.00
21574;BME280;10948;48.706;9.258;2023-02-20T03:37:51;98857.63;;;8.41;100.00
21574;BME280;10948;48.706;9.258;2023-02-20T03:40:36;98857.94;;;8.32;100.00
21574;BME280;10948;48.706;9.258;2023-02-20T03:43:21;98862.38;;;8.29;100.00
21574;BME280;10948;48.706;9.258;2023-02-20T03:45:50;98856.25;;;8.31;100.00
21574;BME280;10948;48.706;9.258;2023-02-20T03:48:26;98869.31;;;8.28;100.00
21574;BME280;10948;48.706;9.258;2023-02-20T03:50:52;98870.00;;;8.33;100.00
21574;BME280;10948;48.706;9.258;2023-02-20T03:53:18;98866.63;;;8.31;100.00
21574;BME280;10948;48.706;9.258;2023-02-20T03:55:43;98873.59;;;8.29;100.00
21574;BME280;10948;48.706;9.258;2023-02-20T03:58:10;98875.41;;;8.27;100.00
21574;BME280;10948;48.706;9.258;2023-02-20T04:00:39;98874.81;;;8.18;100.00
21574;BME280;10948;48.706;9.258;2023-02-20T04:03:07;98870.88;;;8.06;100.00
21574;BME280;10948;48.706;9.258;2023-02-20T04:05:36;98866.75;;;8.01;100.00
21574;BME280;10948;48.706;9.258;2023-02-20T04:08:10;98863.16;;;8.05;100.00
21574;BME280;10948;48.706;9.258;2023-02-20T04:10:59;98859.50;;;8.10;100.00
21574;BME280;10948;48.706;9.258;2023-02-20T04:13:26;98857.31;;;7.98;100.00
21574;BME280;10948;48.706;9.258;2023-02-20T04:15:53;98853.84;;;7.99;100.00
21574;BME280;10948;48.706;9.258;2023-02-20T04:18:20;98842.13;;;7.88;100.00
21574;BME280;10948;48.706;9.258;2023-02-20T04:20:47;98849.19;;;7.83;100.00
21574;BME280;10948;48.706;9.258;2023-02-20T04:23:15;98843.13;;;7.56;100.00
21574;BME280;10948;48.706;9.258;2023-02-20T04:25:44;98845.19;;;7.73;100.00
21574;BME280;10948;48.706;9.258;2023-02-20T04:28:10;98843.75;;;7.64;100.00
21574;BME280;10948;48.706;9.258;2023-02-20T04:30:36;98849.19;;;7.55;100.00
21574;BME280;10948;48.706;9.258;2023-02-20T04:33:02;98846.91;;;7.46;100.00
21574;BME280;10948;48.706;9.258;2023-02-20T04:35:27;98846.03;;;7.46;100.00
21574;BME280;10948;48.706;9.258;2023-02-20T04:37:52;98847.72;;;7.19;100.00
21574;BME280;10948;48.706;9.258;2023-02-20T04:40:19;98843.94;;;7.29;100.00
21574;BME280;10948;48.706;9.258;2023-02-20T04:42:45;98839.34;;;7.39;100.00
21574;BME280;10948;48.706;9.258;2023-02-20T04:45:10;98841.19;;;7.35;100.00
21574;BME280;10948;48.706;9.258;2023-02-20T04:47:35;98841.44;;;7.28;100.00
21574;BME280;10948;48.706;9.258;2023-02-20T04:50:01;98841.31;;;7.31;100.00
21574;BME280;10948;48.706;9.258;2023-02-20T04:52:26;98840.66;;;7.24;100.00
21574;BME280;10948;48.706;9.258;2023-02-20T04:54:51;98841.06;;;7.11;100.00
21574;BME280;10948;48.706;9.258;2023-02-20T04:57:17;98841.19;;;7.06;100.00
21574;BME280;10948;48.706;9.258;2023-02-20T04:59:43;98840.88;;;6.88;100.00
21574;BME280;10948;48.706;9.258;2023-02-20T05:02:08;98855.28;;;6.96;100.00
21574;BME280;10948;48.706;9.258;2023-02-20T05:04:33;98855.69;;;6.83;100.00
21574;BME280;10948;48.706;9.258;2023-02-20T05:06:58;98858.63;;;6.69;100.00
21574;BME280;10948;48.706;9.258;2023-02-20T05:09:24;98855.50;;;6.58;100.00
21574;BME280;10948;48.706;9.258;2023-02-20T05:11:49;98858.25;;;6.52;100.00
21574;BME280;10948;48.706;9.258;2023-02-20T05:14:15;98855.34;;;6.32;100.00
21574;BME280;10948;48.706;9.258;2023-02-20T05:16:40;98850.63;;;6.14;100.00
21574;BME280;10948;48.706;9.258;2023-02-20T05:19:06;98860.72;;;5.90;100.00
21574;BME280;10948;48.706;9.258;2023-02-20T05:21:32;98846.56;;;6.04;100.00
21574;BME280;10948;48.706;9.258;2023-02-20T05:24:16;98849.00;;;6.10;100.00
21574;BME280;10948;48.706;9.258;2023-02-20T05:26:41;98851.16;;;5.93;100.00
21574;BME280;10948;48.706;9.258;2023-02-20T05:29:07;98860.09;;;6.14;100.00
21574;BME280;10948;48.706;9.258;2023-02-20T05:31:34;98864.56;;;6.07;100.00
21574;BME280;10948;48.706;9.258;2023-02-20T05:33:59;98854.16;;;6.10;100.00
21574;BME280;10948;48.706;9.258;2023-02-20T05:36:24;98854.47;;;5.98;100.00
21574;BME280;10948;48.706;9.258;2023-02-20T05:38:50;98849.38;;;5.95;100.00
21574;BME280;10948;48.706;9.258;2023-02-20T05:41:15;98846.13;;;5.87;100.00
21574;BME280;10948;48.706;9.258;2023-02-20T05:43:40;98857.63;;;5.73;100.00
21574;BME280;10948;48.706;9.258;2023-02-20T05:46:05;98865.50;;;5.68;100.00
21574;BME280;10948;48.706;9.258;2023-02-20T05:48:31;98865.44;;;5.71;100.00
21574;BME280;10948;48.706;9.258;2023-02-20T05:50:56;98855.16;;;5.68;100.00
21574;BME280;10948;48.706;9.258;2023-02-20T05:53:21;98851.50;;;5.78;100.00
21574;BME280;10948;48.706;9.258;2023-02-20T05:55:46;98853.06;;;5.49;100.00
21574;BME280;10948;48.706;9.258;2023-02-20T05:58:12;98857.75;;;5.68;100.00
21574;BME280;10948;48.706;9.258;2023-02-20T06:00:37;98854.81;;;5.83;100.00
21574;BME280;10948;48.706;9.258;2023-02-20T06:03:05;98859.47;;;6.04;100.00
21574;BME280;10948;48.706;9.258;2023-02-20T06:05:30;98856.28;;;5.58;100.00
21574;BME280;10948;48.706;9.258;2023-02-20T06:07:55;98855.00;;;5.38;100.00
21574;BME280;10948;48.706;9.258;2023-02-20T06:10:21;98869.19;;;5.58;100.00
21574;BME280;10948;48.706;9.258;2023-02-20T06:12:47;98857.31;;;5.50;100.00
21574;BME280;10948;48.706;9.258;2023-02-20T06:15:12;98869.84;;;5.28;100.00
21574;BME280;10948;48.706;9.258;2023-02-20T06:17:37;98859.25;;;5.40;100.00
21574;BME280;10948;48.706;9.258;2023-02-20T06:20:02;98865.91;;;5.50;100.00
21574;BME280;10948;48.706;9.258;2023-02-20T06:22:28;98860.56;;;5.59;100.00
21574;BME280;10948;48.706;9.258;2023-02-20T06:24:53;98860.81;;;5.47;100.00
21574;BME280;10948;48.706;9.258;2023-02-20T06:27:22;98872.03;;;5.46;100.00
21574;BME280;10948;48.706;9.258;2023-02-20T06:29:47;98872.28;;;5.36;100.00
21574;BME280;10948;48.706;9.258;2023-02-20T06:32:12;98871.63;;;5.26;100.00
21574;BME280;10948;48.706;9.258;2023-02-20T06:34:37;98875.25;;;5.56;100.00
21574;BME280;10948;48.706;9.258;2023-02-20T06:37:03;98874.31;;;5.22;100.00
21574;BME280;10948;48.706;9.258;2023-02-20T06:39:29;98873.19;;;5.33;100.00
21574;BME280;10948;48.706;9.258;2023-02-20T06:41:54;98873.00;;;5.41;100.00
21574;BME280;10948;48.706;9.258;2023-02-20T06:44:20;98873.97;;;5.37;100.00
21574;BME280;10948;48.706;9.258;2023-02-20T06:46:46;98873.06;;;5.39;100.00
21574;BME280;10948;48.706;9.258;2023-02-20T06:49:11;98878.22;;;5.39;100.00
21574;BME280;10948;48.706;9.258;2023-02-20T06:51:37;98877.59;;;5.66;100.00
21574;BME280;10948;48.706;9.258;2023-02-20T06:54:04;98876.84;;;5.99;100.00
21574;BME280;10948;48.706;9.258;2023-02-20T06:56:30;98888.38;;;5.85;100.00
21574;BME280;10948;48.706;9.258;2023-02-20T06:58:56;98882.38;;;6.19;100.00
21574;BME280;10948;48.706;9.258;2023-02-20T07:01:22;98885.22;;;6.74;100.00
21574;BME280;10948;48.706;9.258;2023-02-20T07:03:48;98879.69;;;6.88;100.00
21574;BME280;10948;48.706;9.258;2023-02-20T07:06:14;98891.66;;;6.90;100.00
21574;BME280;10948;48.706;9.258;2023-02-20T07:08:40;98886.00;;;7.08;100.00
21574;BME280;10948;48.706;9.258;2023-02-20T07:11:06;98896.31;;;7.39;100.00
21574;BME280;10948;48.706;9.258;2023-02-20T07:13:31;98889.13;;;7.48;100.00
21574;BME280;10948;48.706;9.258;2023-02-20T07:15:56;98892.50;;;7.79;100.00
21574;BME280;10948;48.706;9.258;2023-02-20T07:18:22;98889.19;;;8.02;100.00
21574;BME280;10948;48.706;9.258;2023-02-20T07:20:47;98891.50;;;8.37;100.00
21574;BME280;10948;48.706;9.258;2023-02-20T07:23:13;98891.03;;;8.50;100.00
21574;BME280;10948;48.706;9.258;2023-02-20T07:25:38;98890.75;;;8.82;100.00
21574;BME280;10948;48.706;9.258;2023-02-20T07:28:03;98889.78;;;9.09;100.00
21574;BME280;10948;48.706;9.258;2023-02-20T07:30:29;98893.19;;;9.79;97.82
21574;BME280;10948;48.706;9.258;2023-02-20T07:32:54;98899.56;;;10.56;95.87
21574;BME280;10948;48.706;9.258;2023-02-20T07:35:20;98893.28;;;11.01;90.73
21574;BME280;10948;48.706;9.258;2023-02-20T07:37:45;98887.25;;;11.58;86.28
21574;BME280;10948;48.706;9.258;2023-02-20T07:40:10;98893.06;;;12.86;79.53
21574;BME280;10948;48.706;9.258;2023-02-20T07:42:36;98882.03;;;14.69;67.67
21574;BME280;10948;48.706;9.258;2023-02-20T07:45:01;98878.00;;;16.44;60.52
21574;BME280;10948;48.706;9.258;2023-02-20T07:47:26;98880.00;;;16.53;57.18
21574;BME280;10948;48.706;9.258;2023-02-20T07:49:51;98873.59;;;17.94;54.02
21574;BME280;10948;48.706;9.258;2023-02-20T07:52:17;98874.69;;;17.66;52.14
21574;BME280;10948;48.706;9.258;2023-02-20T07:54:42;98868.75;;;18.82;51.36
21574;BME280;10948;48.706;9.258;2023-02-20T07:57:07;98863.44;;;19.16;50.20
21574;BME280;10948;48.706;9.258;2023-02-20T07:59:33;98863.53;;;19.04;48.54
21574;BME280;10948;48.706;9.258;2023-02-20T08:01:58;98871.31;;;19.05;48.79
21574;BME280;10948;48.706;9.258;2023-02-20T08:04:23;98859.84;;;19.83;47.42
21574;BME280;10948;48.706;9.258;2023-02-20T08:06:49;98865.03;;;19.74;48.23
21574;BME280;10948;48.706;9.258;2023-02-20T08:09:14;98857.31;;;20.04;46.64
21574;BME280;10948;48.706;9.258;2023-02-20T08:11:39;98859.56;;;17.57;49.25
21574;BME280;10948;48.706;9.258;2023-02-20T08:14:04;98859.91;;;15.30;56.15
21574;BME280;10948;48.706;9.258;2023-02-20T08:16:30;98852.16;;;15.29;57.72
21574;BME280;10948;48.706;9.258;2023-02-20T08:18:55;98843.31;;;15.58;58.39
21574;BME280;10948;48.706;9.258;2023-02-20T08:21:20;98844.59;;;16.32;56.96
21574;BME280;10948;48.706;9.258;2023-02-20T08:23:46;98838.09;;;18.57;53.72
21574;BME280;10948;48.706;9.258;2023-02-20T08:26:11;98836.28;;;19.91;48.23
21574;BME280;10948;48.706;9.258;2023-02-20T08:28:37;98835.41;;;19.48;46.76
21574;BME280;10948;48.706;9.258;2023-02-20T08:31:02;98836.31;;;20.34;46.53
21574;BME280;10948;48.706;9.258;2023-02-20T08:33:28;98830.09;;;19.59;47.54
21574;BME280;10948;48.706;9.258;2023-02-20T08:35:53;98834.81;;;18.43;48.98
21574;BME280;10948;48.706;9.258;2023-02-20T08:38:26;98830.81;;;18.61;49.76
21574;BME280;10948;48.706;9.258;2023-02-20T08:40:53;98824.56;;;18.27;50.50
21574;BME280;10948;48.706;9.258;2023-02-20T08:43:18;98814.50;;;19.56;48.86
21574;BME280;10948;48.706;9.258;2023-02-20T08:45:43;98827.25;;;20.05;46.17
21574;BME280;10948;48.706;9.258;2023-02-20T08:48:08;98832.38;;;20.80;45.22
21574;BME280;10948;48.706;9.258;2023-02-20T08:50:34;98824.44;;;21.61;44.07
21574;BME280;10948;48.706;9.258;2023-02-20T08:52:59;98817.47;;;22.18;43.23
21574;BME280;10948;48.706;9.258;2023-02-20T08:55:24;98811.66;;;21.06;43.33
21574;BME280;10948;48.706;9.258;2023-02-20T08:57:50;98818.59;;;19.27;45.47
21574;BME280;10948;48.706;9.258;2023-02-20T09:00:15;98813.66;;;19.34;46.89
21574;BME280;10948;48.706;9.258;2023-02-20T09:02:41;98809.63;;;18.84;48.05
21574;BME280;10948;48.706;9.258;2023-02-20T09:05:07;98818.97;;;18.77;48.40
21574;BME280;10948;48.706;9.258;2023-02-20T09:07:33;98819.28;;;18.62;48.29
21574;BME280;10948;48.706;9.258;2023-02-20T09:09:58;98813.88;;;18.98;48.93
21574;BME280;10948;48.706;9.258;2023-02-20T09:12:23;98819.13;;;18.52;49.07
21574;BME280;10948;48.706;9.258;2023-02-20T09:14:49;98807.47;;;18.67;49.31
21574;BME280;10948;48.706;9.258;2023-02-20T09:17:14;98798.16;;;19.18;48.71
21574;BME280;10948;48.706;9.258;2023-02-20T09:19:40;98803.78;;;18.46;49.01
21574;BME280;10948;48.706;9.258;2023-02-20T09:22:05;98798.13;;;18.74;49.38
21574;BME280;10948;48.706;9.258;2023-02-20T09:24:30;98794.69;;;19.51;48.28
21574;BME280;10948;48.706;9.258;2023-02-20T09:26:58;98801.69;;;20.05;47.29
21574;BME280;10948;48.706;9.258;2023-02-20T09:29:24;98800.06;;;18.94;47.94
21574;BME280;10948;48.706;9.258;2023-02-20T09:31:49;98789.75;;;19.57;47.18
21574;BME280;10948;48.706;9.258;2023-02-20T09:34:14;98787.25;;;19.45;46.60
21574;BME280;10948;48.706;9.258;2023-02-20T09:36:39;98788.78;;;19.69;46.42
21574;BME280;10948;48.706;9.258;2023-02-20T09:39:05;98785.97;;;19.82;46.39
21574;BME280;10948;48.706;9.258;2023-02-20T09:44:17;98784.63;;;20.61;45.44
21574;BME280;10948;48.706;9.258;2023-02-20T09:46:47;98783.69;;;20.51;44.83
21574;BME280;10948;48.706;9.258;2023-02-20T09:49:21;98783.53;;;19.47;45.58
21574;BME280;10948;48.706;9.258;2023-02-20T09:51:56;98783.53;;;20.32;44.71
21574;BME280;10948;48.706;9.258;2023-02-20T09:54:35;98777.38;;;20.84;44.26
21574;BME280;10948;48.706;9.258;2023-02-20T09:57:02;98788.44;;;22.07;42.64
21574;BME280;10948;48.706;9.258;2023-02-20T09:59:49;98779.59;;;21.78;42.22
21574;BME280;10948;48.706;9.258;2023-02-20T10:02:16;98787.19;;;21.13;43.36
21574;BME280;10948;48.706;9.258;2023-02-20T10:04:44;98779.41;;;21.21;43.30
21574;BME280;10948;48.706;9.258;2023-02-20T10:07:16;98767.25;;;20.68;44.05
21574;BME280;10948;48.706;9.258;2023-02-20T10:09:45;98759.84;;;20.10;44.95
21574;BME280;10948;48.706;9.258;2023-02-20T10:14:52;98766.00;;;20.31;44.13
21574;BME280;10948;48.706;9.258;2023-02-20T10:22:21;98761.22;;;17.33;49.53
21574;BME280;10948;48.706;9.258;2023-02-20T10:24:55;98763.31;;;16.92;50.97
21574;BME280;10948;48.706;9.258;2023-02-20T10:27:41;98758.19;;;17.75;50.61
21574;BME280;10948;48.706;9.258;2023-02-20T10:30:11;98746.78;;;19.55;47.55
21574;BME280;10948;48.706;9.258;2023-02-20T10:32:40;98749.59;;;20.78;44.78
21574;BME280;10948;48.706;9.258;2023-02-20T10:35:09;98748.94;;;20.35;44.38
21574;BME280;10948;48.706;9.258;2023-02-20T10:37:45;98751.97;;;19.88;45.55
21574;BME280;10948;48.706;9.258;2023-02-20T10:40:17;98752.31;;;19.19;46.63
21574;BME280;10948;48.706;9.258;2023-02-20T10:45:13;98740.84;;;22.53;42.09
21574;BME280;10948;48.706;9.258;2023-02-20T10:47:45;98736.66;;;22.60;41.31
21574;BME280;10948;48.706;9.258;2023-02-20T10:50:19;98736.09;;;22.66;40.45
21574;BME280;10948;48.706;9.258;2023-02-20T10:58:16;98731.69;;;23.30;40.09
21574;BME280;10948;48.706;9.258;2023-02-20T11:00:49;98730.31;;;23.53;40.01
21574;BME280;10948;48.706;9.258;2023-02-20T11:03:26;98729.72;;;23.77;39.55
21574;BME280;10948;48.706;9.258;2023-02-20T11:05:54;98733.38;;;23.22;39.98
21574;BME280;10948;48.706;9.258;2023-02-20T11:08:21;98737.63;;;22.31;40.46
21574;BME280;10948;48.706;9.258;2023-02-20T11:10:54;98731.09;;;22.06;39.88
21574;BME280;10948;48.706;9.258;2023-02-20T11:13:21;98725.50;;;22.47;40.61
21574;BME280;10948;48.706;9.258;2023-02-20T11:15:48;98718.72;;;22.81;39.80
21574;BME280;10948;48.706;9.258;2023-02-20T11:18:34;98718.38;;;23.74;39.10
21574;BME280;10948;48.706;9.258;2023-02-20T11:21:01;98708.34;;;23.15;39.69
21574;BME280;10948;48.706;9.258;2023-02-20T11:23:33;98710.72;;;23.54;38.97
21574;BME280;10948;48.706;9.258;2023-02-20T11:26:18;98714.38;;;23.26;39.36
21574;BME280;10948;48.706;9.258;2023-02-20T11:29:32;98709.78;;;23.19;39.66
21574;BME280;10948;48.706;9.258;2023-02-20T11:31:32;98706.66;;;23.50;39.55
21574;BME280;10948;48.706;9.258;2023-02-20T11:33:58;98705.84;;;23.50;39.57
21574;BME280;10948;48.706;9.258;2023-02-20T11:36:30;98697.22;;;22.65;40.18
21574;BME280;10948;48.706;9.258;2023-02-20T11:39:02;98698.66;;;22.50;40.38
21574;BME280;10948;48.706;9.258;2023-02-20T11:46:34;98682.06;;;23.48;39.70
21574;BME280;10948;48.706;9.258;2023-02-20T11:54:07;98669.00;;;23.55;39.77
21574;BME280;10948;48.706;9.258;2023-02-20T11:56:33;98680.91;;;22.60;39.54
21574;BME280;10948;48.706;9.258;2023-02-20T12:02:17;98664.47;;;22.47;41.40
21574;BME280;10948;48.706;9.258;2023-02-20T12:07:29;98645.22;;;22.72;40.78
21574;BME280;10948;48.706;9.258;2023-02-20T12:09:58;98642.91;;;24.02;38.82
21574;BME280;10948;48.706;9.258;2023-02-20T12:12:25;98644.13;;;23.29;38.83
21574;BME280;10948;48.706;9.258;2023-02-20T12:14:52;98639.53;;;23.48;39.83
21574;BME280;10948;48.706;9.258;2023-02-20T12:17:21;98628.22;;;23.64;39.52
21574;BME280;10948;48.706;9.258;2023-02-20T12:22:36;98616.66;;;23.20;39.22
21574;BME280;10948;48.706;9.258;2023-02-20T12:25:14;98611.28;;;23.47;39.85
21574;BME280;10948;48.706;9.258;2023-02-20T12:28:03;98612.03;;;23.57;39.31
21574;BME280;10948;48.706;9.258;2023-02-20T12:35:54;98595.50;;;23.28;39.20
21574;BME280;10948;48.706;9.258;2023-02-20T12:38:31;98592.53;;;21.76;40.11
21574;BME280;10948;48.706;9.258;2023-02-20T12:41:08;98578.03;;;22.45;40.07
21574;BME280;10948;48.706;9.258;2023-02-20T12:46:33;98566.03;;;22.31;40.05
21574;BME280;10948;48.706;9.258;2023-02-20T12:52:00;98554.84;;;22.37;39.78
21574;BME280;10948;48.706;9.258;2023-02-20T13:02:36;98540.31;;;23.83;38.32
21574;BME280;10948;48.706;9.258;2023-02-20T13:05:04;98532.97;;;23.77;38.55
21574;BME280;10948;48.706;9.258;2023-02-20T13:10:15;98528.50;;;23.07;37.50
21574;BME280;10948;48.706;9.258;2023-02-20T13:12:42;98524.22;;;23.24;37.66
21574;BME280;10948;48.706;9.258;2023-02-20T13:17:41;98510.91;;;23.41;37.12
21574;BME280;10948;48.706;9.258;2023-02-20T13:20:19;98507.19;;;23.77;36.87
21574;BME280;10948;48.706;9.258;2023-02-20T13:23:04;98496.03;;;23.73;36.58
21574;BME280;10948;48.706;9.258;2023-02-20T13:27:59;98491.09;;;23.53;36.13
21574;BME280;10948;48.706;9.258;2023-02-20T13:30:24;98486.66;;;22.74;36.59
21574;BME280;10948;48.706;9.258;2023-02-20T13:33:09;98481.47;;;23.17;36.83
21574;BME280;10948;48.706;9.258;2023-02-20T13:38:13;98460.50;;;22.79;36.61
21574;BME280;10948;48.706;9.258;2023-02-20T13:46:32;98442.59;;;21.73;38.53
21574;BME280;10948;48.706;9.258;2023-02-20T13:48:39;98443.41;;;22.37;36.99
21574;BME280;10948;48.706;9.258;2023-02-20T13:53:50;98451.88;;;22.23;36.75
21574;BME280;10948;48.706;9.258;2023-02-20T13:56:23;98451.09;;;22.40;37.57
21574;BME280;10948;48.706;9.258;2023-02-20T13:58:49;98443.63;;;21.99;37.52
21574;BME280;10948;48.706;9.258;2023-02-20T14:01:15;98442.91;;;22.24;37.73
21574;BME280;10948;48.706;9.258;2023-02-20T14:03:40;98428.88;;;22.41;36.99
21574;BME280;10948;48.706;9.258;2023-02-20T14:06:13;98416.00;;;21.92;37.07
21574;BME280;10948;48.706;9.258;2023-02-20T14:08:43;98411.06;;;21.61;37.21
21574;BME280;10948;48.706;9.258;2023-02-20T14:11:09;98420.59;;;21.44;37.44
21574;BME280;10948;48.706;9.258;2023-02-20T14:13:35;98415.88;;;21.38;37.80
21574;BME280;10948;48.706;9.258;2023-02-20T14:16:01;98421.53;;;21.62;37.91
21574;BME280;10948;48.706;9.258;2023-02-20T14:18:30;98421.31;;;21.46;37.46
21574;BME280;10948;48.706;9.258;2023-02-20T14:21:09;98411.28;;;21.40;37.60
21574;BME280;10948;48.706;9.258;2023-02-20T14:23:39;98413.13;;;21.11;37.25
21574;BME280;10948;48.706;9.258;2023-02-20T14:26:09;98419.41;;;21.20;36.73
21574;BME280;10948;48.706;9.258;2023-02-20T14:28:43;98422.34;;;21.26;36.60
21574;BME280;10948;48.706;9.258;2023-02-20T14:33:57;98406.47;;;21.07;35.89
21574;BME280;10948;48.706;9.258;2023-02-20T14:41:52;98408.16;;;20.89;34.88
21574;BME280;10948;48.706;9.258;2023-02-20T14:44:18;98408.69;;;21.02;34.95
21574;BME280;10948;48.706;9.258;2023-02-20T14:46:44;98392.81;;;20.93;35.45
21574;BME280;10948;48.706;9.258;2023-02-20T14:49:14;98362.59;;;20.95;35.60
21574;BME280;10948;48.706;9.258;2023-02-20T14:51:40;98373.88;;;20.97;35.78